Time;durP1;ratioP1;P1;durP2;ratioP2;P2;SDS_P1;SDS_P2;PMS_P1;PMS_P2;Temp;Humidity;BMP_temperature;BMP_pressure;BME280_temperature;BME280_humidity;BME280_pressure;Samples;Min_cycle;Max_cycle;Signal;HPM_P1;HPM_P2
2022/01/21 00:02:11;;;;;;;10.93;3.50;;;29.30;73.30;;;;;;5084362;28;20094;-51
2022/01/21 00:04:38;;;;;;;13.07;3.70;;;29.30;73.30;;;;;;5083904;28;20014;-47
2022/01/21 00:07:04;;;;;;;8.93;3.83;;;29.30;73.10;;;;;;5084306;28;20024;-48
2022/01/21 00:09:31;;;;;;;9.80;3.42;;;29.20;72.60;;;;;;5082605;28;20020;-51
2022/01/21 00:11:58;;;;;;;10.43;3.50;;;29.20;72.50;;;;;;5065393;28;20224;-49
2022/01/21 00:14:24;;;;;;;13.18;4.10;;;29.20;72.60;;;;;;5078227;28;20313;-46
2022/01/21 00:16:55;;;;;;;11.60;3.95;;;29.20;72.60;;;;;;5074790;28;20033;-47
2022/01/21 00:19:24;;;;;;;16.20;4.10;;;29.10;72.40;;;;;;5083335;28;20229;-54
2022/01/21 00:30:13;;;;;;;13.05;3.80;;;29.10;71.70;;;;;;5066280;28;20092;-43
2022/01/21 00:32:46;;;;;;;10.75;3.97;;;29.00;71.50;;;;;;5081270;28;20363;-43
2022/01/21 00:35:23;;;;;;;23.37;4.10;;;29.00;71.40;;;;;;5074554;28;20364;-44
2022/01/21 00:37:50;;;;;;;13.35;3.95;;;29.00;70.80;;;;;;5070917;28;20045;-49
2022/01/21 00:40:22;;;;;;;12.35;3.90;;;29.00;70.70;;;;;;5076443;28;20324;-44
2022/01/21 00:43:08;;;;;;;14.23;4.60;;;28.90;70.50;;;;;;5057570;28;20078;-44
2022/01/21 00:45:39;;;;;;;10.40;4.00;;;29.00;70.60;;;;;;5079188;28;20017;-50
2022/01/21 00:48:08;;;;;;;10.43;4.30;;;28.90;70.40;;;;;;5042387;28;20027;-48
2022/01/21 00:50:35;;;;;;;11.88;4.05;;;28.90;70.30;;;;;;5082220;28;20221;-44
2022/01/21 00:53:02;;;;;;;9.60;3.40;;;28.90;69.60;;;;;;5082208;28;20091;-49
2022/01/21 00:55:31;;;;;;;12.32;3.65;;;28.90;69.70;;;;;;5081797;28;20069;-45
2022/01/21 00:57:58;;;;;;;8.30;3.13;;;28.80;69.30;;;;;;5074342;28;20024;-43
2022/01/21 01:00:29;;;;;;;8.48;3.42;;;28.80;69.20;;;;;;5082029;28;20039;-43
2022/01/21 01:02:58;;;;;;;10.18;3.80;;;28.80;69.00;;;;;;5078870;28;20036;-48
2022/01/21 01:05:26;;;;;;;9.38;4.00;;;28.80;68.80;;;;;;5079942;28;20235;-47
2022/01/21 01:07:54;;;;;;;14.48;3.42;;;28.70;69.10;;;;;;5072866;28;20031;-47
2022/01/21 01:10:37;;;;;;;10.00;3.22;;;28.70;68.80;;;;;;5083745;28;20029;-51
2022/01/21 01:21:23;;;;;;;10.93;2.80;;;28.70;68.30;;;;;;5071334;28;20044;-47
2022/01/21 01:29:25;;;;;;;6.10;3.28;;;28.60;67.30;;;;;;5078088;28;20024;-43
2022/01/21 01:31:54;;;;;;;13.30;5.78;;;28.60;67.10;;;;;;5087262;28;20032;-45
2022/01/21 01:34:23;;;;;;;11.75;6.30;;;28.60;67.10;;;;;;5084815;28;20080;-47
2022/01/21 01:36:50;;;;;;;14.38;5.95;;;28.60;66.90;;;;;;5074693;28;20032;-47
2022/01/21 01:41:59;;;;;;;8.88;4.95;;;28.50;66.40;;;;;;5066833;28;20087;-44
2022/01/21 01:49:59;;;;;;;12.18;3.70;;;28.50;65.80;;;;;;5085816;28;20032;-43
2022/01/21 01:52:27;;;;;;;7.03;3.20;;;28.50;65.80;;;;;;5085571;28;20033;-44
2022/01/21 01:54:56;;;;;;;8.52;2.90;;;28.50;65.60;;;;;;5082626;28;20366;-46
2022/01/21 01:57:24;;;;;;;8.88;3.08;;;28.50;65.60;;;;;;5078124;28;20292;-51
2022/01/21 01:59:54;;;;;;;7.72;2.58;;;28.40;65.40;;;;;;5071016;28;20040;-53
2022/01/21 02:02:23;;;;;;;5.03;2.35;;;28.40;65.30;;;;;;5075744;28;20076;-43
2022/01/21 02:04:50;;;;;;;3.55;2.00;;;28.40;65.40;;;;;;5075055;28;20078;-43
2022/01/21 02:07:17;;;;;;;7.22;2.10;;;28.40;65.30;;;;;;5075979;28;20205;-48
2022/01/21 02:09:44;;;;;;;5.97;2.05;;;28.40;65.30;;;;;;5074114;28;20033;-51
2022/01/21 02:12:11;;;;;;;6.13;2.30;;;28.40;65.20;;;;;;5076822;28;20028;-48
2022/01/21 02:14:47;;;;;;;3.65;2.05;;;28.40;65.30;;;;;;5076443;28;20035;-46
2022/01/21 02:22:47;;;;;;;3.88;1.95;;;28.40;65.80;;;;;;5074571;28;20031;-48
2022/01/21 02:25:20;;;;;;;4.82;2.10;;;28.30;65.00;;;;;;5072797;28;20070;-49
2022/01/21 02:27:58;;;;;;;5.55;2.30;;;28.30;65.20;;;;;;5074886;28;20337;-48
2022/01/21 02:30:27;;;;;;;7.20;2.08;;;28.30;65.20;;;;;;5073593;28;20013;-44
2022/01/21 02:32:57;;;;;;;5.10;2.20;;;28.30;65.40;;;;;;5073758;28;20116;-44
2022/01/21 02:35:25;;;;;;;8.20;2.10;;;28.30;65.30;;;;;;5067916;28;20029;-48
2022/01/21 02:37:52;;;;;;;5.93;2.22;;;28.30;65.60;;;;;;5074582;28;20024;-52
2022/01/21 02:40:19;;;;;;;7.32;2.13;;;28.30;65.70;;;;;;5079246;28;20103;-44
2022/01/21 02:42:46;;;;;;;4.80;2.10;;;28.30;65.50;;;;;;5075376;28;20013;-46
2022/01/21 02:45:15;;;;;;;9.68;2.20;;;28.40;65.60;;;;;;5078736;28;20017;-45
2022/01/21 02:47:46;;;;;;;9.38;2.22;;;28.30;65.50;;;;;;5075261;28;20047;-45
2022/01/21 02:50:15;;;;;;;4.47;2.00;;;28.40;65.30;;;;;;5075356;28;20016;-44
2022/01/21 02:52:54;;;;;;;4.88;2.03;;;28.40;65.10;;;;;;5074850;28;20244;-43
2022/01/21 02:55:22;;;;;;;5.50;1.80;;;28.40;65.20;;;;;;5073757;28;20305;-46
2022/01/21 02:57:49;;;;;;;4.50;2.15;;;28.40;65.10;;;;;;5073731;28;20024;-46
2022/01/21 03:00:16;;;;;;;6.90;2.10;;;28.40;64.70;;;;;;5073443;28;20024;-45
2022/01/21 03:02:43;;;;;;;4.20;2.17;;;28.40;64.80;;;;;;5074578;28;20040;-49
2022/01/21 03:05:14;;;;;;;2.80;1.88;;;28.40;64.70;;;;;;5074969;28;20068;-50
2022/01/21 03:07:44;;;;;;;4.28;1.95;;;28.40;65.00;;;;;;5073617;28;20020;-43
2022/01/21 03:10:12;;;;;;;3.97;2.10;;;28.30;64.90;;;;;;5075786;28;20016;-47
2022/01/21 03:12:39;;;;;;;5.68;1.95;;;28.30;64.70;;;;;;5077553;28;20333;-45
2022/01/21 03:15:07;;;;;;;3.80;1.80;;;28.30;64.50;;;;;;5072743;28;20067;-49
2022/01/21 03:17:34;;;;;;;4.38;1.70;;;28.30;64.50;;;;;;5076866;28;20040;-46
2022/01/21 03:20:03;;;;;;;4.03;1.85;;;28.30;64.50;;;;;;5072942;28;20037;-46
2022/01/21 03:22:31;;;;;;;2.83;1.83;;;28.30;64.20;;;;;;5055396;28;20028;-45
2022/01/21 03:24:57;;;;;;;3.60;2.00;;;28.30;64.30;;;;;;5072887;28;20044;-43
2022/01/21 03:27:24;;;;;;;3.67;1.80;;;28.30;64.20;;;;;;5074219;28;20020;-46
2022/01/21 03:29:51;;;;;;;2.67;1.80;;;28.30;64.10;;;;;;5073571;28;20059;-47
2022/01/21 03:32:19;;;;;;;4.20;1.90;;;28.30;64.20;;;;;;5082850;28;20033;-49
2022/01/21 03:34:46;;;;;;;3.78;1.85;;;28.30;64.10;;;;;;5079798;28;20055;-43
2022/01/21 03:37:13;;;;;;;6.97;2.45;;;28.20;64.10;;;;;;5075428;28;20368;-44
2022/01/21 03:39:39;;;;;;;6.20;2.15;;;28.20;64.00;;;;;;5084246;28;20347;-48
2022/01/21 03:42:06;;;;;;;5.25;1.90;;;28.20;64.00;;;;;;5084643;28;20028;-44
2022/01/21 03:44:33;;;;;;;3.80;1.70;;;28.20;64.10;;;;;;5084359;28;20017;-44
2022/01/21 03:47:00;;;;;;;3.60;1.83;;;28.20;64.20;;;;;;5084459;28;20027;-43
2022/01/21 03:49:28;;;;;;;3.67;1.55;;;28.20;64.10;;;;;;5083210;28;20016;-50
2022/01/21 03:51:55;;;;;;;6.65;1.92;;;28.20;64.10;;;;;;5084221;28;20028;-47
2022/01/21 03:54:21;;;;;;;18.33;2.53;;;28.20;64.20;;;;;;5083261;28;20210;-49
2022/01/21 03:56:48;;;;;;;6.03;1.80;;;28.10;64.00;;;;;;5082901;28;20239;-47
2022/01/21 03:59:14;;;;;;;5.22;1.73;;;28.10;64.00;;;;;;5084264;28;20017;-44
2022/01/21 04:01:41;;;;;;;5.47;1.65;;;28.10;64.10;;;;;;5084146;28;20368;-46
2022/01/21 04:04:07;;;;;;;4.32;1.90;;;28.10;64.20;;;;;;5082906;28;20013;-48
2022/01/21 04:06:34;;;;;;;2.42;1.65;;;28.10;64.20;;;;;;5073640;28;20045;-50
2022/01/21 04:09:01;;;;;;;6.78;1.98;;;28.10;64.10;;;;;;5080899;28;20315;-49
2022/01/21 04:11:28;;;;;;;4.20;1.90;;;28.10;64.10;;;;;;5073537;28;20240;-43
2022/01/21 04:13:55;;;;;;;7.13;2.10;;;28.10;64.20;;;;;;5069051;28;20078;-45
2022/01/21 04:16:23;;;;;;;3.67;1.70;;;28.10;64.30;;;;;;5073991;28;20033;-48
2022/01/21 04:18:49;;;;;;;4.68;2.00;;;28.00;64.10;;;;;;5076019;28;20029;-47
2022/01/21 04:21:16;;;;;;;3.88;2.05;;;28.00;64.10;;;;;;5077805;28;20035;-44
2022/01/21 04:23:43;;;;;;;7.30;1.90;;;28.00;64.10;;;;;;5082769;28;20012;-49
2022/01/21 04:26:10;;;;;;;4.03;1.90;;;28.00;64.10;;;;;;5082114;28;20039;-49
2022/01/21 04:28:36;;;;;;;4.18;1.95;;;28.00;64.20;;;;;;5083780;28;20216;-44
2022/01/21 04:31:06;;;;;;;4.07;1.95;;;28.00;64.10;;;;;;5083995;28;20054;-51
2022/01/21 04:33:33;;;;;;;32.05;3.33;;;28.00;64.20;;;;;;5084308;28;20028;-43
2022/01/21 04:36:00;;;;;;;11.80;3.08;;;28.00;64.10;;;;;;5083877;28;20020;-44
2022/01/21 04:38:27;;;;;;;5.68;1.70;;;28.00;63.90;;;;;;5069838;28;20029;-48
2022/01/21 04:41:02;;;;;;;2.55;1.70;;;27.90;63.90;;;;;;5063335;28;20029;-48
2022/01/21 04:48:58;;;;;;;5.10;1.85;;;27.90;64.10;;;;;;5063623;28;20297;-55
2022/01/21 04:51:29;;;;;;;4.10;1.70;;;27.90;64.00;;;;;;5063139;28;20057;-44
2022/01/21 04:53:57;;;;;;;2.67;1.70;;;27.80;63.70;;;;;;5063503;28;20021;-46
2022/01/21 04:56:23;;;;;;;5.65;1.73;;;27.80;63.90;;;;;;5063279;28;20088;-46
2022/01/21 04:58:50;;;;;;;3.05;1.52;;;27.70;63.60;;;;;;5061787;28;20032;-46
2022/01/21 05:01:17;;;;;;;3.35;1.73;;;27.70;63.60;;;;;;5061882;28;20031;-45
2022/01/21 05:03:45;;;;;;;3.58;1.50;;;27.70;63.60;;;;;;5061945;28;20025;-48
2022/01/21 05:06:12;;;;;;;2.15;1.55;;;27.70;63.60;;;;;;5062520;28;20236;-46
2022/01/21 05:08:53;;;;;;;3.20;1.80;;;27.70;63.40;;;;;;5062326;28;20071;-48
2022/01/21 05:11:20;;;;;;;6.90;1.70;;;27.70;63.30;;;;;;5062145;28;20024;-48
2022/01/21 05:13:56;;;;;;;3.20;1.48;;;27.70;63.30;;;;;;5063339;28;20309;-51
2022/01/21 05:16:37;;;;;;;3.50;1.38;;;27.70;63.40;;;;;;5063407;28;20070;-47
2022/01/21 05:19:12;;;;;;;2.67;1.45;;;27.70;63.30;;;;;;5063171;28;20062;-44
2022/01/21 05:21:39;;;;;;;2.17;1.30;;;27.70;63.40;;;;;;5063401;28;20041;-46
2022/01/21 05:24:06;;;;;;;4.35;1.50;;;27.70;63.20;;;;;;5074446;28;20031;-47
2022/01/21 05:26:38;;;;;;;3.20;1.40;;;27.70;63.30;;;;;;5082085;28;20034;-45
2022/01/21 05:29:06;;;;;;;2.60;1.48;;;27.60;63.40;;;;;;5083321;28;20241;-47
2022/01/21 05:31:33;;;;;;;2.70;1.40;;;27.70;63.30;;;;;;5083971;28;20043;-44
2022/01/21 05:34:00;;;;;;;3.75;1.23;;;27.60;63.30;;;;;;5083533;28;20324;-44
2022/01/21 05:36:27;;;;;;;5.55;1.38;;;27.70;63.30;;;;;;5083654;28;20320;-52
2022/01/21 05:38:55;;;;;;;4.70;1.50;;;27.70;63.20;;;;;;5083552;28;20169;-53
2022/01/21 05:41:25;;;;;;;4.93;1.73;;;27.70;63.40;;;;;;5083916;28;20032;-57
2022/01/21 05:44:00;;;;;;;1.90;1.27;;;27.70;63.30;;;;;;5084238;28;20084;-59
2022/01/21 05:47:09;;;;;;;5.68;1.50;;;27.70;63.40;;;;;;5087188;28;20024;-48
2022/01/21 05:49:17;;;;;;;2.95;1.45;;;27.70;63.40;;;;;;5086812;28;20028;-46
2022/01/21 05:51:43;;;;;;;3.10;1.65;;;27.70;63.40;;;;;;5087295;28;20406;-45
2022/01/21 05:54:12;;;;;;;3.92;1.40;;;27.60;63.50;;;;;;5086988;28;20020;-45
2022/01/21 05:56:39;;;;;;;4.03;1.50;;;27.60;63.30;;;;;;5087494;28;20028;-44
2022/01/21 05:59:07;;;;;;;2.92;1.60;;;27.60;63.50;;;;;;5086651;28;20083;-47
2022/01/21 06:01:35;;;;;;;2.97;1.20;;;27.60;63.50;;;;;;5087012;28;20046;-47
2022/01/21 06:04:04;;;;;;;4.18;1.45;;;27.60;63.60;;;;;;5086246;28;20029;-43
2022/01/21 06:06:30;;;;;;;2.40;1.40;;;27.60;63.50;;;;;;5086787;28;20028;-43
2022/01/21 06:08:57;;;;;;;6.30;1.45;;;27.60;63.50;;;;;;5087195;28;20019;-52
2022/01/21 06:11:24;;;;;;;5.03;1.33;;;27.50;63.10;;;;;;5087057;28;20059;-50
2022/01/21 06:13:51;;;;;;;2.17;1.50;;;27.50;63.40;;;;;;5086857;28;20030;-45
2022/01/21 06:16:18;;;;;;;3.42;1.58;;;27.50;63.40;;;;;;5086968;28;20033;-45
2022/01/21 06:18:45;;;;;;;3.67;1.50;;;27.50;63.30;;;;;;5086302;28;20066;-44
2022/01/21 06:21:12;;;;;;;2.38;1.48;;;27.50;63.30;;;;;;5086095;28;20047;-49
2022/01/21 06:23:39;;;;;;;3.03;1.52;;;27.50;63.20;;;;;;5086636;28;20016;-45
2022/01/21 06:26:07;;;;;;;2.45;1.58;;;27.50;63.20;;;;;;5086679;28;20086;-47
2022/01/21 06:28:34;;;;;;;4.38;1.40;;;27.50;63.20;;;;;;5086742;28;20013;-46
2022/01/21 06:31:00;;;;;;;4.18;1.58;;;27.50;63.20;;;;;;5086417;28;20036;-53
2022/01/21 06:33:27;;;;;;;2.85;1.42;;;27.50;63.10;;;;;;5086218;28;20020;-45
2022/01/21 06:35:54;;;;;;;3.03;1.65;;;27.50;63.20;;;;;;5086218;28;20092;-48
2022/01/21 06:38:22;;;;;;;4.15;1.52;;;27.50;63.50;;;;;;5085969;28;20051;-48
2022/01/21 06:40:50;;;;;;;3.65;1.50;;;27.50;63.30;;;;;;5086007;28;20024;-46
2022/01/21 06:43:17;;;;;;;5.80;1.60;;;27.50;63.50;;;;;;5086133;28;20080;-44
2022/01/21 06:45:44;;;;;;;4.03;1.70;;;27.50;63.80;;;;;;5086647;28;20020;-48
2022/01/21 06:48:11;;;;;;;6.05;1.90;;;27.40;64.00;;;;;;5085592;28;20062;-49
2022/01/21 06:50:40;;;;;;;6.35;1.52;;;27.40;64.30;;;;;;5086351;28;20023;-50
2022/01/21 06:53:07;;;;;;;2.67;1.65;;;27.40;64.50;;;;;;5086474;28;20044;-51
2022/01/21 06:55:34;;;;;;;3.30;1.65;;;27.40;64.70;;;;;;5084970;28;20024;-48
2022/01/21 06:58:01;;;;;;;6.22;1.63;;;27.40;65.00;;;;;;5083812;28;20200;-44
2022/01/21 07:00:27;;;;;;;3.85;1.63;;;27.30;65.10;;;;;;5083677;28;20042;-48
2022/01/21 07:02:54;;;;;;;5.13;1.73;;;27.30;65.20;;;;;;5083639;28;20336;-48
2022/01/21 07:05:22;;;;;;;6.72;1.70;;;27.30;65.30;;;;;;5083908;28;20024;-47
2022/01/21 07:07:49;;;;;;;3.78;1.65;;;27.30;65.40;;;;;;5084022;28;20309;-50
2022/01/21 07:10:16;;;;;;;4.15;1.58;;;27.30;65.60;;;;;;5084135;28;20020;-49
2022/01/21 07:12:44;;;;;;;2.83;1.60;;;27.20;65.60;;;;;;5086066;28;20074;-47
2022/01/21 07:15:18;;;;;;;4.85;1.80;;;27.30;65.80;;;;;;5085732;28;20024;-54
2022/01/21 07:17:45;;;;;;;2.83;1.55;;;27.30;66.00;;;;;;5086445;28;20154;-49
2022/01/21 07:20:15;;;;;;;5.60;1.80;;;27.20;66.20;;;;;;5085602;28;20051;-52
2022/01/21 07:22:42;;;;;;;3.38;1.77;;;27.20;66.50;;;;;;5086188;28;20051;-55
2022/01/21 07:25:09;;;;;;;4.03;1.60;;;27.20;66.70;;;;;;5084343;28;20083;-54
2022/01/21 07:27:35;;;;;;;2.75;1.50;;;27.20;67.10;;;;;;5086299;28;20035;-53
2022/01/21 07:30:04;;;;;;;3.10;1.80;;;27.20;67.20;;;;;;5085430;28;20016;-54
2022/01/21 07:32:31;;;;;;;5.50;1.90;;;27.20;67.30;;;;;;5086128;28;20025;-57
2022/01/21 07:34:57;;;;;;;4.97;1.73;;;27.10;67.60;;;;;;5085655;28;20020;-44
2022/01/21 07:37:24;;;;;;;4.82;1.85;;;27.10;67.80;;;;;;5085913;28;20024;-48
2022/01/21 07:39:51;;;;;;;3.10;1.88;;;27.10;67.90;;;;;;5085071;28;20020;-47
2022/01/21 07:42:17;;;;;;;5.22;1.90;;;27.10;68.00;;;;;;5085465;28;20164;-50
2022/01/21 07:44:44;;;;;;;7.15;2.20;;;27.10;68.10;;;;;;5085316;28;20014;-47
2022/01/21 07:47:11;;;;;;;6.05;1.95;;;27.00;68.10;;;;;;5085656;28;20077;-46
2022/01/21 07:49:37;;;;;;;6.63;1.95;;;27.00;68.20;;;;;;5085491;28;20240;-47
2022/01/21 07:52:05;;;;;;;5.30;1.58;;;27.00;68.30;;;;;;5085735;28;20317;-48
2022/01/21 07:54:31;;;;;;;4.32;1.90;;;27.00;68.20;;;;;;5085204;28;20044;-48
2022/01/21 07:56:58;;;;;;;5.93;2.05;;;27.00;68.20;;;;;;5085509;28;20035;-45
2022/01/21 07:59:25;;;;;;;5.03;2.00;;;27.00;68.10;;;;;;5085075;28;20021;-45
2022/01/21 08:01:51;;;;;;;9.38;2.10;;;26.90;68.00;;;;;;5085365;28;20035;-48
2022/01/21 08:04:18;;;;;;;6.13;2.15;;;27.00;68.10;;;;;;5085249;28;20024;-46
2022/01/21 08:06:45;;;;;;;7.07;1.92;;;27.00;68.10;;;;;;5084783;28;20027;-52
2022/01/21 08:09:11;;;;;;;4.07;1.92;;;27.00;68.10;;;;;;5084880;28;20066;-48
2022/01/21 08:11:38;;;;;;;4.95;1.80;;;27.00;68.10;;;;;;5085314;28;20091;-56
2022/01/21 08:14:04;;;;;;;5.60;1.98;;;27.00;68.10;;;;;;5084922;28;20012;-49
2022/01/21 08:16:33;;;;;;;4.32;1.80;;;27.00;68.10;;;;;;5085115;28;20028;-54
2022/01/21 08:19:00;;;;;;;4.78;1.70;;;27.00;68.20;;;;;;5084572;28;20036;-56
2022/01/21 08:21:27;;;;;;;4.30;1.80;;;27.00;68.30;;;;;;5085005;28;20075;-54
2022/01/21 08:23:55;;;;;;;3.47;1.67;;;27.00;68.30;;;;;;5084470;28;20031;-55
2022/01/21 08:26:27;;;;;;;6.28;1.83;;;27.00;68.30;;;;;;5084916;28;20083;-56
2022/01/21 08:28:57;;;;;;;3.63;1.73;;;27.00;68.50;;;;;;5084720;28;20200;-55
2022/01/21 08:31:25;;;;;;;3.47;1.90;;;27.00;68.50;;;;;;5084549;28;20054;-57
2022/01/21 08:33:52;;;;;;;3.05;1.80;;;27.00;68.50;;;;;;5084606;28;20092;-58
2022/01/21 08:36:23;;;;;;;3.15;1.83;;;26.90;68.50;;;;;;5084877;28;20035;-50
2022/01/21 08:38:50;;;;;;;4.18;1.88;;;27.00;68.70;;;;;;5084757;28;20028;-47
2022/01/21 08:41:17;;;;;;;3.60;1.77;;;26.90;68.60;;;;;;5084449;28;20091;-49
2022/01/21 08:43:44;;;;;;;2.47;1.73;;;27.00;68.70;;;;;;5084068;28;20048;-47
2022/01/21 08:46:11;;;;;;;4.55;1.85;;;27.00;68.70;;;;;;5084295;28;20024;-49
2022/01/21 08:48:39;;;;;;;7.22;1.65;;;27.00;68.70;;;;;;5084180;28;20028;-52
2022/01/21 08:51:10;;;;;;;3.30;1.70;;;27.00;68.80;;;;;;5084160;28;20096;-47
2022/01/21 08:53:40;;;;;;;7.37;1.87;;;27.00;68.70;;;;;;5083828;28;20080;-45
2022/01/21 08:56:12;;;;;;;5.05;2.08;;;26.90;68.60;;;;;;5083927;28;20046;-46
2022/01/21 08:58:40;;;;;;;6.00;2.00;;;26.90;68.50;;;;;;5083644;28;20029;-52
2022/01/21 09:01:09;;;;;;;6.25;1.83;;;26.90;68.90;;;;;;5084132;28;20036;-51
2022/01/21 09:03:37;;;;;;;4.55;1.88;;;26.90;68.20;;;;;;5084133;28;20043;-46
2022/01/21 09:06:04;;;;;;;7.00;1.80;;;26.90;68.00;;;;;;5083741;28;20013;-45
2022/01/21 09:08:31;;;;;;;4.00;1.80;;;26.90;68.00;;;;;;5083898;28;20020;-53
2022/01/21 09:11:02;;;;;;;4.10;1.55;;;26.80;68.00;;;;;;5084083;28;20342;-46
2022/01/21 09:13:31;;;;;;;3.65;1.80;;;26.80;67.70;;;;;;5084284;28;20213;-49
2022/01/21 09:16:01;;;;;;;5.53;1.70;;;26.90;67.60;;;;;;5084023;28;20056;-46
2022/01/21 09:21:17;;;;;;;6.95;1.88;;;26.90;67.40;;;;;;5087615;28;20052;-47
2022/01/21 09:23:47;;;;;;;7.13;1.85;;;26.90;67.40;;;;;;5087881;28;20178;-51
2022/01/21 09:26:15;;;;;;;4.22;1.63;;;26.90;67.30;;;;;;5088024;28;20020;-46
2022/01/21 09:28:42;;;;;;;3.67;1.73;;;26.90;67.40;;;;;;5087933;28;20016;-52
2022/01/21 09:31:09;;;;;;;5.95;1.90;;;26.90;67.60;;;;;;5087705;28;20029;-45
2022/01/21 09:33:36;;;;;;;3.05;1.70;;;26.90;67.60;;;;;;5087801;28;20021;-49
2022/01/21 09:36:02;;;;;;;5.10;1.60;;;26.90;67.70;;;;;;5086936;28;20261;-49
2022/01/21 09:38:29;;;;;;;2.67;1.85;;;26.90;67.70;;;;;;5087305;28;20320;-59
2022/01/21 09:40:56;;;;;;;2.28;1.50;;;26.90;67.80;;;;;;5087374;28;20372;-48
2022/01/21 09:43:23;;;;;;;2.78;1.63;;;26.80;67.70;;;;;;5087081;28;20032;-48
2022/01/21 09:45:53;;;;;;;2.63;1.75;;;26.80;67.60;;;;;;5087605;28;20099;-50
2022/01/21 09:48:29;;;;;;;3.65;1.52;;;26.80;67.60;;;;;;5087462;28;20021;-48
2022/01/21 09:51:00;;;;;;;3.72;1.75;;;26.80;67.30;;;;;;5087684;28;20048;-49
2022/01/21 09:53:32;;;;;;;3.55;1.67;;;26.90;67.30;;;;;;5087250;28;20083;-45
2022/01/21 09:56:00;;;;;;;2.55;1.48;;;26.90;67.20;;;;;;5087478;28;20029;-45
2022/01/21 09:58:31;;;;;;;4.10;1.75;;;26.80;67.00;;;;;;5087524;28;20177;-50
2022/01/21 10:01:00;;;;;;;3.70;1.38;;;26.80;67.00;;;;;;5087003;28;20021;-54
2022/01/21 10:03:27;;;;;;;2.30;1.50;;;26.80;66.90;;;;;;5086466;28;20020;-48
2022/01/21 10:05:54;;;;;;;2.17;1.45;;;26.80;66.70;;;;;;5086890;28;20031;-50
2022/01/21 10:08:24;;;;;;;5.10;1.50;;;26.80;66.80;;;;;;5087110;28;20036;-49
2022/01/21 10:10:51;;;;;;;3.60;1.50;;;26.80;66.80;;;;;;5085630;28;20257;-50
2022/01/21 10:13:20;;;;;;;2.63;1.48;;;26.80;66.80;;;;;;5086814;28;20025;-48
2022/01/21 10:15:49;;;;;;;5.88;1.80;;;26.80;66.70;;;;;;5087217;28;20265;-51
2022/01/21 10:18:19;;;;;;;4.82;1.70;;;26.80;66.70;;;;;;5086905;28;20028;-45
2022/01/21 10:21:15;;;;;;;3.53;1.60;;;26.80;66.80;;;;;;5086153;28;20044;-55
2022/01/21 10:23:43;;;;;;;2.45;1.70;;;26.80;66.80;;;;;;5078088;28;20029;-51
2022/01/21 10:26:14;;;;;;;2.63;1.60;;;26.80;66.80;;;;;;5086244;28;20236;-47
2022/01/21 10:28:43;;;;;;;5.97;1.58;;;26.80;66.90;;;;;;5086792;28;20063;-46
2022/01/21 10:31:16;;;;;;;2.97;1.50;;;26.80;66.90;;;;;;5086400;28;20209;-45
2022/01/21 10:33:51;;;;;;;3.03;1.58;;;26.80;66.80;;;;;;5086648;28;20021;-47
2022/01/21 10:36:30;;;;;;;3.25;1.52;;;26.80;66.80;;;;;;5086362;28;20017;-54
2022/01/21 10:39:18;;;;;;;4.28;2.00;;;26.80;66.80;;;;;;5086421;28;20035;-45
2022/01/21 10:41:47;;;;;;;6.85;1.73;;;26.80;66.90;;;;;;5086313;28;20028;-49
2022/01/21 10:44:19;;;;;;;4.10;1.90;;;26.80;67.00;;;;;;5086205;28;20065;-47
2022/01/21 10:47:10;;;;;;;10.00;2.20;;;26.80;67.00;;;;;;5085191;28;20212;-47
2022/01/21 10:49:39;;;;;;;4.60;2.08;;;26.70;67.00;;;;;;5086388;28;20206;-48
2022/01/21 10:52:10;;;;;;;5.78;2.20;;;26.80;67.10;;;;;;5086862;28;20020;-50
2022/01/21 10:54:51;;;;;;;3.58;1.92;;;26.80;67.20;;;;;;5086030;28;20062;-46
2022/01/21 10:57:19;;;;;;;7.82;2.00;;;26.70;67.20;;;;;;5086561;28;20182;-47
2022/01/21 11:00:09;;;;;;;7.47;2.00;;;26.80;67.40;;;;;;5085640;28;20024;-47
2022/01/21 11:02:42;;;;;;;8.55;2.17;;;26.80;67.60;;;;;;5086223;28;20043;-52
2022/01/21 11:05:15;;;;;;;9.82;2.33;;;26.70;67.60;;;;;;5085733;28;20024;-47
2022/01/21 11:08:06;;;;;;;11.85;2.55;;;26.70;67.60;;;;;;5085884;28;20031;-50
2022/01/21 11:10:32;;;;;;;12.70;2.25;;;26.70;67.60;;;;;;5085628;28;20020;-46
2022/01/21 11:13:00;;;;;;;5.72;1.95;;;26.70;67.50;;;;;;5085993;28;20031;-50
2022/01/21 11:15:38;;;;;;;7.18;2.00;;;26.70;67.40;;;;;;5085410;28;20024;-47
2022/01/21 11:18:07;;;;;;;7.30;2.00;;;26.70;67.30;;;;;;5085328;28;20240;-48
2022/01/21 11:20:40;;;;;;;5.72;1.83;;;26.70;67.30;;;;;;5084848;28;20044;-50
2022/01/21 11:23:11;;;;;;;5.18;1.88;;;26.70;67.10;;;;;;5085093;28;20027;-49
2022/01/21 11:25:42;;;;;;;5.65;2.15;;;26.70;67.10;;;;;;5085043;28;20017;-53
2022/01/21 11:28:12;;;;;;;6.20;1.90;;;26.70;67.20;;;;;;5084791;28;20024;-46
2022/01/21 11:30:41;;;;;;;10.43;2.95;;;26.70;67.30;;;;;;5085204;28;20029;-47
2022/01/21 11:33:09;;;;;;;11.02;2.75;;;26.70;67.40;;;;;;5084747;28;20059;-46
2022/01/21 11:35:36;;;;;;;9.82;3.30;;;26.70;68.00;;;;;;5084707;28;20052;-47
2022/01/21 11:38:07;;;;;;;12.82;2.83;;;26.70;67.50;;;;;;5084898;28;20028;-53
2022/01/21 11:40:35;;;;;;;16.92;3.17;;;26.70;67.60;;;;;;5084825;28;20212;-48
2022/01/21 11:43:04;;;;;;;8.15;2.60;;;26.70;67.70;;;;;;5083744;28;20024;-46
2022/01/21 11:46:05;;;;;;;22.48;3.60;;;26.80;67.90;;;;;;5084579;28;20293;-47
2022/01/21 11:48:53;;;;;;;17.48;3.33;;;26.80;68.00;;;;;;5085449;28;20039;-51
2022/01/21 11:51:26;;;;;;;15.73;3.22;;;26.80;68.30;;;;;;5081414;28;20033;-55
2022/01/21 11:53:59;;;;;;;16.70;2.90;;;26.70;68.20;;;;;;5084747;28;20024;-52
2022/01/21 11:56:46;;;;;;;13.75;3.22;;;26.70;68.10;;;;;;5084711;28;20289;-53
2022/01/21 12:01:52;;;;;;;11.50;2.75;;;26.80;68.70;;;;;;5084542;28;20040;-52
2022/01/21 12:04:30;;;;;;;12.07;3.17;;;26.80;68.80;;;;;;5084356;28;20024;-52
2022/01/21 12:07:01;;;;;;;10.90;3.50;;;26.80;68.90;;;;;;5084362;28;20325;-50
2022/01/21 12:10:00;;;;;;;10.18;3.00;;;26.80;69.00;;;;;;5084570;28;20031;-51
2022/01/21 12:13:01;;;;;;;12.70;2.70;;;26.80;69.20;;;;;;5061651;28;20040;-56
2022/01/21 12:15:37;;;;;;;11.70;3.00;;;26.80;69.30;;;;;;5071022;28;20029;-54
2022/01/21 12:20:58;;;;;;;10.70;3.30;;;26.90;69.70;;;;;;5084153;28;20036;-50
2022/01/21 12:23:26;;;;;;;14.98;2.83;;;26.90;69.80;;;;;;5084355;28;20177;-51
2022/01/21 12:26:11;;;;;;;12.07;2.60;;;26.90;69.90;;;;;;5084477;28;20189;-50
2022/01/21 12:28:39;;;;;;;5.85;2.45;;;26.90;70.10;;;;;;5084605;28;20240;-51
2022/01/21 12:31:06;;;;;;;13.45;2.78;;;27.00;70.10;;;;;;5084643;28;20083;-54
2022/01/21 12:33:56;;;;;;;15.68;3.05;;;27.00;70.30;;;;;;5084317;28;20021;-54
2022/01/21 12:36:29;;;;;;;11.82;2.58;;;27.00;70.40;;;;;;5083045;28;20047;-50
2022/01/21 12:41:29;;;;;;;11.02;2.85;;;27.00;70.40;;;;;;5083839;28;20091;-51
2022/01/21 12:43:58;;;;;;;7.70;2.60;;;27.00;70.30;;;;;;5084160;28;20059;-52
2022/01/21 12:46:30;;;;;;;4.75;2.50;;;27.00;70.10;;;;;;5084210;28;20193;-54
2022/01/21 12:48:58;;;;;;;8.65;2.50;;;27.00;70.00;;;;;;5083938;28;20016;-54
2022/01/21 12:56:55;;;;;;;6.03;2.20;;;27.00;69.90;;;;;;5088614;28;20359;-53
2022/01/21 12:59:23;;;;;;;9.23;2.50;;;27.00;70.00;;;;;;5086683;28;20185;-62
2022/01/21 13:01:50;;;;;;;9.68;2.42;;;27.10;70.00;;;;;;5088073;28;20036;-61
2022/01/21 13:04:55;;;;;;;13.48;2.60;;;27.10;70.10;;;;;;5087647;28;20016;-60
2022/01/21 13:07:59;;;;;;;8.93;2.78;;;27.10;70.20;;;;;;5088126;28;20020;-59
2022/01/21 13:10:28;;;;;;;10.45;2.50;;;27.10;70.10;;;;;;5071988;28;20202;-60
2022/01/21 13:16:05;;;;;;;14.23;2.70;;;27.10;70.10;;;;;;5087816;28;20017;-51
2022/01/21 13:18:34;;;;;;;8.07;2.40;;;27.10;70.20;;;;;;5085421;28;20220;-53
2022/01/21 13:21:06;;;;;;;9.85;2.50;;;27.20;70.20;;;;;;5087373;28;20091;-51
2022/01/21 13:23:55;;;;;;;6.32;2.55;;;27.10;70.00;;;;;;5081270;28;20084;-50
2022/01/21 13:26:26;;;;;;;11.07;2.90;;;27.20;70.10;;;;;;5087095;28;20028;-53
2022/01/21 13:28:55;;;;;;;3.75;2.08;;;27.20;70.10;;;;;;5086961;28;20024;-51
2022/01/21 13:31:22;;;;;;;6.65;2.72;;;27.20;70.20;;;;;;5087278;28;20055;-53
2022/01/21 13:33:50;;;;;;;9.05;2.30;;;27.20;70.30;;;;;;5084375;28;20024;-58
2022/01/21 13:36:36;;;;;;;11.38;2.17;;;27.20;70.20;;;;;;5078866;28;20028;-52
2022/01/21 13:39:15;;;;;;;11.45;2.42;;;27.20;70.20;;;;;;5070379;28;20205;-50
2022/01/21 13:42:01;;;;;;;6.32;2.35;;;27.20;70.10;;;;;;5077420;28;20088;-51
2022/01/21 13:44:30;;;;;;;6.53;2.00;;;27.20;70.10;;;;;;5084079;28;20108;-54
2022/01/21 13:46:57;;;;;;;7.53;2.30;;;27.20;70.10;;;;;;5073985;28;20084;-54
2022/01/21 13:49:26;;;;;;;7.43;2.00;;;27.20;70.30;;;;;;5080873;28;20040;-50
2022/01/21 13:51:59;;;;;;;6.60;2.10;;;27.30;70.30;;;;;;5080921;28;20052;-54
2022/01/21 13:54:34;;;;;;;6.97;2.25;;;27.30;70.30;;;;;;5081537;28;20024;-55
2022/01/21 13:57:03;;;;;;;11.00;2.20;;;27.30;70.40;;;;;;5075699;28;20032;-53
2022/01/21 13:59:31;;;;;;;5.70;1.90;;;27.40;70.50;;;;;;5081135;28;20236;-54
2022/01/21 14:02:03;;;;;;;5.30;2.70;;;27.30;70.50;;;;;;5085479;28;20048;-54